Time;durP1;ratioP1;P1;durP2;ratioP2;P2;SDS_P1;SDS_P2;PMS_P1;PMS_P2;Temp;Humidity;BMP_temperature;BMP_pressure;BME280_temperature;BME280_humidity;BME280_pressure;Samples;Min_cycle;Max_cycle;Signal;HPM_P1;HPM_P2
2023/07/03 00:02:09;;;;;;;0.10;0.10;;;;;;;;;;5089227;28;20077;-52
2023/07/03 00:04:37;;;;;;;0.10;0.10;;;;;;;;;;5089179;28;20406;-53
2023/07/03 00:07:04;;;;;;;0.22;0.22;;;;;;;;;;5088444;28;20052;-52
2023/07/03 00:09:29;;;;;;;0.10;0.10;;;;;;;;;;5070913;28;20553;-52
2023/07/03 00:11:55;;;;;;;0.10;0.10;;;;;;;;;;5086682;28;20085;-52
2023/07/03 00:14:20;;;;;;;0.10;0.10;;;;;;;;;;5088880;28;20093;-53
2023/07/03 00:16:46;;;;;;;0.10;0.10;;;;;;;;;;5089321;28;20089;-52
2023/07/03 00:19:13;;;;;;;0.10;0.10;;;;;;;;;;5070580;28;20408;-52
2023/07/03 00:21:43;;;;;;;0.10;0.10;;;;;;;;;;5088279;28;20160;-51
2023/07/03 00:24:09;;;;;;;0.10;0.10;;;;;;;;;;5088494;28;20076;-52
2023/07/03 00:26:35;;;;;;;0.10;0.10;;;;;;;;;;5088905;28;20446;-53
2023/07/03 00:29:00;;;;;;;0.10;0.10;;;;;;;;;;5089233;28;20472;-52
2023/07/03 00:31:26;;;;;;;0.10;0.10;;;;;;;;;;5093977;28;20101;-52
2023/07/03 00:33:51;;;;;;;0.10;0.10;;;;;;;;;;5088750;28;20040;-53
2023/07/03 00:36:17;;;;;;;0.10;0.10;;;;;;;;;;5088894;28;20413;-52
2023/07/03 00:38:43;;;;;;;0.10;0.10;;;;;;;;;;5088561;28;20052;-52
2023/07/03 00:41:08;;;;;;;0.10;0.10;;;;;;;;;;5082843;28;20048;-52
2023/07/03 00:43:38;;;;;;;0.10;0.10;;;;;;;;;;5109078;28;20055;-52
2023/07/03 00:46:03;;;;;;;0.10;0.10;;;;;;;;;;5109138;28;20063;-51
2023/07/03 00:48:29;;;;;;;0.10;0.10;;;;;;;;;;5109356;28;20472;-52
2023/07/03 00:50:56;;;;;;;0.15;0.15;;;;;;;;;;5109040;28;20124;-51
2023/07/03 00:53:21;;;;;;;0.10;0.10;;;;;;;;;;5109400;28;20480;-52
2023/07/03 00:55:47;;;;;;;0.20;0.20;;;;;;;;;;5105991;28;20054;-51
2023/07/03 00:58:12;;;;;;;0.10;0.10;;;;;;;;;;5088822;28;20051;-52
2023/07/03 01:00:41;;;;;;;0.10;0.10;;;;;;;;;;5096846;28;20572;-52
2023/07/03 01:03:17;;;;;;;0.10;0.10;;;;;;;;;;5109349;28;20043;-53
2023/07/03 01:05:47;;;;;;;0.10;0.10;;;;;;;;;;5109756;28;20047;-53
2023/07/03 01:08:13;;;;;;;0.10;0.10;;;;;;;;;;5109194;28;20087;-52
2023/07/03 01:10:40;;;;;;;0.10;0.10;;;;;;;;;;5108490;28;20086;-51
2023/07/03 01:13:07;;;;;;;0.10;0.10;;;;;;;;;;5109184;28;20071;-52
2023/07/03 01:15:36;;;;;;;0.10;0.10;;;;;;;;;;5108974;28;20172;-53
2023/07/03 01:18:03;;;;;;;0.10;0.10;;;;;;;;;;5096197;28;20044;-52
2023/07/03 01:20:32;;;;;;;0.10;0.10;;;;;;;;;;5077852;28;20047;-53
2023/07/03 01:23:02;;;;;;;0.10;0.10;;;;;;;;;;5069837;28;20076;-53
2023/07/03 01:25:28;;;;;;;0.10;0.10;;;;;;;;;;5088351;28;20048;-52
2023/07/03 01:27:55;;;;;;;0.10;0.10;;;;;;;;;;5070158;28;20076;-52
2023/07/03 01:30:21;;;;;;;0.10;0.10;;;;;;;;;;5088082;28;20097;-52
2023/07/03 01:32:49;;;;;;;0.10;0.10;;;;;;;;;;5087604;28;20070;-52
2023/07/03 01:35:16;;;;;;;0.10;0.10;;;;;;;;;;5088295;28;20059;-53
2023/07/03 01:37:43;;;;;;;0.10;0.10;;;;;;;;;;5088665;28;20055;-53
2023/07/03 01:40:10;;;;;;;0.10;0.10;;;;;;;;;;5088018;28;20416;-52
2023/07/03 01:42:38;;;;;;;0.10;0.10;;;;;;;;;;5087943;28;20078;-51
2023/07/03 01:45:04;;;;;;;0.10;0.10;;;;;;;;;;5087959;28;20094;-52
2023/07/03 01:47:30;;;;;;;0.10;0.10;;;;;;;;;;5070267;28;20048;-51
2023/07/03 01:49:56;;;;;;;0.10;0.10;;;;;;;;;;5090645;28;20465;-52
2023/07/03 01:52:27;;;;;;;0.10;0.10;;;;;;;;;;5089994;28;20044;-53
2023/07/03 01:54:59;;;;;;;0.10;0.10;;;;;;;;;;5089740;28;20048;-53
2023/07/03 01:57:31;;;;;;;0.10;0.10;;;;;;;;;;5106968;28;20051;-52
2023/07/03 01:59:57;;;;;;;0.10;0.10;;;;;;;;;;5089740;28;20039;-52
2023/07/03 02:02:28;;;;;;;0.10;0.10;;;;;;;;;;5107673;28;20403;-50
2023/07/03 02:04:59;;;;;;;0.10;0.10;;;;;;;;;;5108359;28;20056;-50
2023/07/03 02:07:26;;;;;;;0.32;0.32;;;;;;;;;;5108324;28;20458;-51
2023/07/03 02:09:52;;;;;;;0.10;0.10;;;;;;;;;;5107435;28;20096;-48
2023/07/03 02:12:17;;;;;;;0.32;0.30;;;;;;;;;;5106747;28;20044;-50
2023/07/03 02:14:43;;;;;;;0.10;0.10;;;;;;;;;;5107456;28;20066;-51
2023/07/03 02:17:09;;;;;;;0.10;0.10;;;;;;;;;;5102727;28;20048;-48
2023/07/03 02:19:35;;;;;;;0.10;0.10;;;;;;;;;;5087466;28;20048;-48
2023/07/03 02:22:01;;;;;;;0.10;0.10;;;;;;;;;;5107753;28;20122;-50
2023/07/03 02:24:26;;;;;;;0.15;0.15;;;;;;;;;;5069717;28;20051;-51
2023/07/03 02:26:52;;;;;;;0.20;0.20;;;;;;;;;;5069064;28;20044;-50
2023/07/03 02:29:18;;;;;;;0.10;0.10;;;;;;;;;;5068954;28;20102;-49
2023/07/03 02:31:43;;;;;;;0.10;0.10;;;;;;;;;;5086200;28;20130;-48
2023/07/03 02:34:09;;;;;;;0.10;0.10;;;;;;;;;;5086853;28;20336;-50
2023/07/03 02:36:35;;;;;;;0.10;0.10;;;;;;;;;;5087376;28;20044;-50
2023/07/03 02:39:01;;;;;;;0.10;0.10;;;;;;;;;;5068724;28;20341;-52
2023/07/03 02:41:27;;;;;;;0.10;0.10;;;;;;;;;;5086773;28;20054;-51
2023/07/03 02:43:53;;;;;;;0.10;0.10;;;;;;;;;;5085256;28;20052;-52
2023/07/03 02:46:19;;;;;;;0.10;0.10;;;;;;;;;;5087116;28;20117;-51
2023/07/03 02:48:45;;;;;;;0.20;0.20;;;;;;;;;;5068999;28;20083;-51
2023/07/03 02:51:10;;;;;;;0.35;0.17;;;;;;;;;;5099854;28;20069;-53
2023/07/03 02:53:36;;;;;;;0.10;0.10;;;;;;;;;;5107917;28;20047;-52
2023/07/03 02:56:01;;;;;;;0.13;0.13;;;;;;;;;;5107246;28;20051;-52
2023/07/03 02:58:27;;;;;;;0.10;0.10;;;;;;;;;;5107784;28;20308;-52
2023/07/03 03:00:53;;;;;;;0.10;0.10;;;;;;;;;;5090363;28;20044;-52
2023/07/03 03:03:18;;;;;;;0.10;0.10;;;;;;;;;;5086821;28;20064;-52
2023/07/03 03:05:44;;;;;;;0.10;0.10;;;;;;;;;;5087160;28;20185;-52
2023/07/03 03:08:11;;;;;;;0.10;0.10;;;;;;;;;;5086458;28;20083;-52
2023/07/03 03:10:37;;;;;;;0.10;0.10;;;;;;;;;;5094782;28;20305;-51
2023/07/03 03:13:02;;;;;;;0.10;0.10;;;;;;;;;;5106901;28;20040;-52
2023/07/03 03:15:29;;;;;;;0.20;0.20;;;;;;;;;;5106496;28;20052;-49
2023/07/03 03:17:54;;;;;;;0.10;0.10;;;;;;;;;;5070455;28;20036;-52
2023/07/03 03:20:20;;;;;;;0.10;0.10;;;;;;;;;;5092654;28;20096;-52
2023/07/03 03:22:45;;;;;;;0.10;0.10;;;;;;;;;;5107521;28;20096;-52
2023/07/03 03:25:11;;;;;;;0.10;0.10;;;;;;;;;;5099079;28;20048;-53
2023/07/03 03:27:36;;;;;;;0.10;0.10;;;;;;;;;;5090421;28;20476;-52
2023/07/03 03:30:02;;;;;;;0.10;0.10;;;;;;;;;;5089157;28;20063;-52
2023/07/03 03:32:28;;;;;;;0.10;0.10;;;;;;;;;;5089725;28;20219;-52
2023/07/03 03:34:53;;;;;;;0.10;0.10;;;;;;;;;;5071707;28;20062;-51
2023/07/03 03:37:19;;;;;;;0.10;0.10;;;;;;;;;;5088931;28;20071;-52
2023/07/03 03:39:44;;;;;;;0.10;0.10;;;;;;;;;;5088236;28;20067;-52
2023/07/03 03:42:10;;;;;;;0.10;0.10;;;;;;;;;;5089185;28;20131;-52
2023/07/03 03:44:35;;;;;;;0.55;0.40;;;;;;;;;;5088316;28;20094;-52
2023/07/03 03:47:02;;;;;;;0.10;0.10;;;;;;;;;;5089639;28;20044;-52
2023/07/03 03:49:28;;;;;;;0.10;0.10;;;;;;;;;;5071300;28;20056;-51
2023/07/03 03:51:54;;;;;;;0.10;0.10;;;;;;;;;;5070803;28;20390;-52
2023/07/03 03:54:19;;;;;;;0.10;0.10;;;;;;;;;;5089156;28;20044;-52
2023/07/03 03:56:45;;;;;;;0.10;0.10;;;;;;;;;;5071149;28;20055;-52
2023/07/03 03:59:11;;;;;;;0.10;0.10;;;;;;;;;;5089172;28;20075;-52
2023/07/03 04:01:36;;;;;;;0.10;0.10;;;;;;;;;;5088315;28;20097;-53
2023/07/03 04:04:02;;;;;;;0.10;0.10;;;;;;;;;;5089153;28;20051;-52
2023/07/03 04:06:27;;;;;;;0.10;0.10;;;;;;;;;;5089532;28;20051;-53
2023/07/03 04:08:53;;;;;;;0.10;0.10;;;;;;;;;;5070807;28;20060;-52
2023/07/03 04:11:20;;;;;;;0.10;0.10;;;;;;;;;;5102300;28;20135;-53
2023/07/03 04:13:45;;;;;;;0.10;0.10;;;;;;;;;;5109426;28;20082;-52
2023/07/03 04:16:11;;;;;;;0.10;0.10;;;;;;;;;;5098549;28;20284;-53
2023/07/03 04:18:37;;;;;;;0.10;0.10;;;;;;;;;;5068410;28;20408;-52
2023/07/03 04:21:02;;;;;;;0.10;0.10;;;;;;;;;;5088706;28;20048;-52
2023/07/03 04:23:29;;;;;;;0.10;0.10;;;;;;;;;;5089210;28;20287;-53
2023/07/03 04:25:54;;;;;;;0.10;0.10;;;;;;;;;;5089357;28;20044;-52
2023/07/03 04:28:21;;;;;;;0.10;0.10;;;;;;;;;;5089163;28;20055;-50
2023/07/03 04:30:46;;;;;;;0.10;0.10;;;;;;;;;;5089835;28;20048;-52
2023/07/03 04:33:18;;;;;;;0.10;0.10;;;;;;;;;;5088895;28;20515;-52
2023/07/03 04:35:44;;;;;;;0.10;0.10;;;;;;;;;;5088430;28;20051;-52
2023/07/03 04:38:09;;;;;;;0.10;0.10;;;;;;;;;;5088852;28;20492;-51
2023/07/03 04:40:35;;;;;;;0.10;0.10;;;;;;;;;;5096661;28;20687;-51
2023/07/03 04:43:00;;;;;;;0.10;0.10;;;;;;;;;;5109235;28;20047;-52
2023/07/03 04:45:26;;;;;;;0.10;0.10;;;;;;;;;;5104506;28;20450;-52
2023/07/03 04:47:52;;;;;;;0.20;0.20;;;;;;;;;;5087414;28;20047;-51
2023/07/03 04:50:18;;;;;;;0.13;0.13;;;;;;;;;;5076644;28;20484;-51
2023/07/03 04:52:46;;;;;;;0.10;0.10;;;;;;;;;;5090886;28;20055;-52
2023/07/03 04:55:12;;;;;;;0.10;0.10;;;;;;;;;;5109374;28;20075;-52
2023/07/03 04:57:38;;;;;;;0.10;0.10;;;;;;;;;;5090654;28;20548;-52
2023/07/03 05:00:11;;;;;;;0.10;0.10;;;;;;;;;;5090165;28;20052;-52
2023/07/03 05:02:37;;;;;;;0.10;0.10;;;;;;;;;;5108702;28;20161;-52
2023/07/03 05:05:02;;;;;;;0.10;0.10;;;;;;;;;;5088463;28;20048;-52
2023/07/03 05:07:29;;;;;;;0.10;0.10;;;;;;;;;;5088018;28;20048;-51
2023/07/03 05:09:55;;;;;;;0.10;0.10;;;;;;;;;;5090603;28;20128;-51
2023/07/03 05:12:20;;;;;;;0.10;0.10;;;;;;;;;;5108534;28;20047;-52
2023/07/03 05:14:46;;;;;;;0.10;0.10;;;;;;;;;;5104501;28;20055;-52
2023/07/03 05:17:12;;;;;;;0.13;0.13;;;;;;;;;;5081126;28;20069;-52
2023/07/03 05:19:37;;;;;;;0.10;0.10;;;;;;;;;;5087396;28;20043;-52
2023/07/03 05:22:03;;;;;;;0.10;0.10;;;;;;;;;;5108228;28;20454;-52
2023/07/03 05:24:28;;;;;;;0.10;0.10;;;;;;;;;;5108397;28;20101;-53
2023/07/03 05:26:54;;;;;;;0.10;0.10;;;;;;;;;;5108711;28;20051;-53
2023/07/03 05:29:20;;;;;;;0.10;0.10;;;;;;;;;;5092269;28;20279;-52
2023/07/03 05:31:46;;;;;;;0.10;0.10;;;;;;;;;;5085152;28;20091;-51
2023/07/03 05:34:12;;;;;;;0.10;0.10;;;;;;;;;;5087497;28;20044;-51
2023/07/03 05:36:37;;;;;;;0.10;0.10;;;;;;;;;;5069981;28;20044;-52
2023/07/03 05:39:03;;;;;;;0.10;0.10;;;;;;;;;;5087133;28;20122;-52
2023/07/03 05:41:28;;;;;;;0.17;0.17;;;;;;;;;;5070856;28;20056;-52
2023/07/03 05:43:54;;;;;;;0.10;0.10;;;;;;;;;;5087662;28;20052;-53
2023/07/03 05:46:19;;;;;;;0.20;0.20;;;;;;;;;;5087563;28;20067;-52
2023/07/03 05:48:45;;;;;;;0.10;0.10;;;;;;;;;;5086761;28;20131;-51
2023/07/03 05:51:11;;;;;;;0.10;0.10;;;;;;;;;;5087113;28;20431;-53
2023/07/03 05:53:36;;;;;;;0.10;0.10;;;;;;;;;;5087670;28;20052;-52
2023/07/03 05:56:02;;;;;;;0.10;0.10;;;;;;;;;;5087624;28;20044;-53
2023/07/03 05:58:28;;;;;;;0.10;0.10;;;;;;;;;;5087610;28;20062;-52
2023/07/03 06:00:53;;;;;;;0.10;0.10;;;;;;;;;;5087329;28;20048;-52
2023/07/03 06:03:19;;;;;;;0.10;0.10;;;;;;;;;;5069371;28;20050;-52
2023/07/03 06:05:47;;;;;;;0.10;0.10;;;;;;;;;;5086078;28;20071;-53
2023/07/03 06:08:12;;;;;;;0.10;0.10;;;;;;;;;;5087898;28;20055;-53
2023/07/03 06:10:38;;;;;;;0.10;0.10;;;;;;;;;;5086796;28;20481;-52
2023/07/03 06:13:04;;;;;;;0.10;0.10;;;;;;;;;;5069505;28;20055;-52
2023/07/03 06:15:30;;;;;;;0.10;0.10;;;;;;;;;;5079580;28;20048;-52
2023/07/03 06:17:56;;;;;;;0.10;0.10;;;;;;;;;;5087018;28;20445;-52
2023/07/03 06:20:21;;;;;;;0.10;0.10;;;;;;;;;;5093734;28;20126;-51
2023/07/03 06:22:47;;;;;;;0.10;0.10;;;;;;;;;;5106389;28;20067;-53
2023/07/03 06:25:13;;;;;;;0.10;0.10;;;;;;;;;;5107548;28;20074;-52
2023/07/03 06:27:38;;;;;;;0.10;0.10;;;;;;;;;;5107938;28;20096;-52
2023/07/03 06:30:04;;;;;;;0.10;0.10;;;;;;;;;;5100429;28;20128;-52
2023/07/03 06:32:30;;;;;;;0.10;0.10;;;;;;;;;;5085978;28;20177;-52
2023/07/03 06:34:56;;;;;;;0.10;0.10;;;;;;;;;;5086964;28;20056;-52
2023/07/03 06:37:21;;;;;;;0.20;0.20;;;;;;;;;;5087653;28;20493;-52
2023/07/03 06:39:47;;;;;;;0.10;0.10;;;;;;;;;;5070354;28;20052;-52
2023/07/03 06:42:12;;;;;;;0.10;0.10;;;;;;;;;;5096518;28;20059;-52
2023/07/03 06:44:40;;;;;;;0.10;0.10;;;;;;;;;;5085943;28;20075;-51
2023/07/03 06:47:05;;;;;;;0.10;0.10;;;;;;;;;;5086613;28;20078;-53
2023/07/03 06:49:32;;;;;;;0.10;0.10;;;;;;;;;;5085870;28;20059;-52
2023/07/03 06:51:58;;;;;;;0.10;0.10;;;;;;;;;;5085674;28;20048;-52
2023/07/03 06:54:23;;;;;;;0.10;0.10;;;;;;;;;;5086214;28;20055;-52
2023/07/03 06:56:49;;;;;;;0.10;0.10;;;;;;;;;;5067902;28;20048;-53
2023/07/03 06:59:14;;;;;;;0.10;0.10;;;;;;;;;;5085707;28;20128;-52
2023/07/03 07:01:40;;;;;;;0.10;0.10;;;;;;;;;;5085754;28;20048;-51
2023/07/03 07:04:06;;;;;;;0.10;0.10;;;;;;;;;;5086208;28;20078;-52
2023/07/03 07:06:32;;;;;;;0.10;0.10;;;;;;;;;;5084733;28;20137;-51
2023/07/03 07:08:58;;;;;;;0.10;0.10;;;;;;;;;;5067335;28;20052;-52
2023/07/03 07:11:26;;;;;;;0.10;0.10;;;;;;;;;;5067476;28;20477;-52
2023/07/03 07:13:52;;;;;;;0.10;0.10;;;;;;;;;;5083410;28;20244;-51
2023/07/03 07:16:19;;;;;;;0.10;0.10;;;;;;;;;;5080300;28;20040;-52
2023/07/03 07:18:46;;;;;;;0.10;0.10;;;;;;;;;;5067699;28;20058;-52
2023/07/03 07:21:11;;;;;;;0.10;0.10;;;;;;;;;;5085198;28;20040;-53
2023/07/03 07:23:37;;;;;;;0.10;0.10;;;;;;;;;;5085537;28;20450;-52
2023/07/03 07:26:02;;;;;;;0.10;0.10;;;;;;;;;;5086463;28;20040;-52
2023/07/03 07:28:28;;;;;;;0.10;0.10;;;;;;;;;;5086347;28;20077;-52
2023/07/03 07:30:54;;;;;;;0.10;0.10;;;;;;;;;;5085508;28;20067;-52
2023/07/03 07:33:20;;;;;;;0.10;0.10;;;;;;;;;;5085242;28;20087;-50
2023/07/03 07:35:46;;;;;;;0.10;0.10;;;;;;;;;;5086015;28;20072;-52
2023/07/03 07:38:13;;;;;;;0.10;0.10;;;;;;;;;;5085843;28;20044;-52
2023/07/03 07:40:38;;;;;;;0.10;0.10;;;;;;;;;;5067290;28;20095;-52
2023/07/03 07:43:05;;;;;;;0.10;0.10;;;;;;;;;;5085483;28;20076;-51
2023/07/03 07:45:31;;;;;;;0.10;0.10;;;;;;;;;;5085340;28;20052;-51
2023/07/03 07:47:56;;;;;;;0.10;0.10;;;;;;;;;;5085995;28;20052;-49
2023/07/03 07:50:23;;;;;;;0.10;0.10;;;;;;;;;;5085684;28;20117;-52
2023/07/03 07:52:49;;;;;;;0.10;0.10;;;;;;;;;;5083701;28;20052;-52
2023/07/03 07:55:15;;;;;;;0.10;0.10;;;;;;;;;;5085932;28;20048;-51
2023/07/03 07:57:42;;;;;;;0.10;0.10;;;;;;;;;;5067925;28;20249;-52
2023/07/03 08:00:07;;;;;;;0.10;0.10;;;;;;;;;;5085161;28;20044;-49
2023/07/03 08:02:33;;;;;;;0.10;0.10;;;;;;;;;;5085675;28;20052;-51
2023/07/03 08:04:59;;;;;;;0.10;0.10;;;;;;;;;;5067564;28;20488;-51
2023/07/03 08:07:24;;;;;;;0.10;0.10;;;;;;;;;;5086157;28;20056;-51
2023/07/03 08:09:50;;;;;;;0.10;0.10;;;;;;;;;;5085213;28;20177;-51
2023/07/03 08:12:15;;;;;;;0.10;0.10;;;;;;;;;;5088056;28;20193;-50
2023/07/03 08:14:41;;;;;;;0.10;0.10;;;;;;;;;;5088323;28;20052;-51
2023/07/03 08:17:06;;;;;;;0.10;0.10;;;;;;;;;;5089256;28;20093;-52
2023/07/03 08:19:32;;;;;;;0.10;0.10;;;;;;;;;;5088429;28;20428;-52
2023/07/03 08:21:58;;;;;;;0.10;0.10;;;;;;;;;;5070486;28;20058;-52
2023/07/03 08:24:23;;;;;;;0.10;0.10;;;;;;;;;;5089016;28;20060;-52
2023/07/03 08:26:50;;;;;;;0.10;0.10;;;;;;;;;;5089504;28;20451;-52
2023/07/03 08:29:16;;;;;;;0.65;0.30;;;;;;;;;;5089306;28;20105;-52
2023/07/03 08:31:42;;;;;;;0.10;0.10;;;;;;;;;;5069220;28;20040;-52
2023/07/03 08:34:09;;;;;;;0.10;0.10;;;;;;;;;;5087638;28;20603;-52
2023/07/03 08:36:34;;;;;;;0.10;0.10;;;;;;;;;;5088905;28;20040;-52
2023/07/03 08:39:04;;;;;;;0.10;0.10;;;;;;;;;;5087574;28;20059;-51
2023/07/03 08:41:34;;;;;;;0.10;0.10;;;;;;;;;;5069942;28;20509;-51
2023/07/03 08:44:00;;;;;;;0.10;0.10;;;;;;;;;;5088513;28;20051;-52
2023/07/03 08:46:27;;;;;;;0.10;0.10;;;;;;;;;;5069730;28;20052;-52
2023/07/03 08:48:55;;;;;;;0.10;0.10;;;;;;;;;;5070387;28;20043;-52
2023/07/03 08:51:24;;;;;;;0.10;0.10;;;;;;;;;;5070006;28;20082;-52
2023/07/03 08:53:53;;;;;;;0.10;0.10;;;;;;;;;;5070018;28;20094;-52
2023/07/03 08:56:20;;;;;;;0.10;0.10;;;;;;;;;;5070519;28;20052;-51
2023/07/03 08:58:46;;;;;;;0.10;0.10;;;;;;;;;;5070368;28;20295;-52
2023/07/03 09:01:31;;;;;;;0.43;0.30;;;;;;;;;;5102075;28;20266;-53
2023/07/03 09:04:04;;;;;;;0.10;0.10;;;;;;;;;;5093517;28;20126;-50
2023/07/03 09:06:35;;;;;;;0.10;0.10;;;;;;;;;;5108799;28;20047;-52
2023/07/03 09:09:04;;;;;;;0.10;0.10;;;;;;;;;;5090262;28;20082;-52
2023/07/03 09:11:33;;;;;;;0.10;0.10;;;;;;;;;;5107842;28;20051;-52
2023/07/03 09:13:59;;;;;;;0.10;0.10;;;;;;;;;;5087975;28;20132;-51
2023/07/03 09:16:25;;;;;;;0.10;0.10;;;;;;;;;;5088195;28;20055;-52
2023/07/03 09:19:11;;;;;;;0.10;0.10;;;;;;;;;;5088429;28;20447;-52
2023/07/03 09:21:37;;;;;;;0.10;0.10;;;;;;;;;;5069319;28;20086;-52
2023/07/03 09:24:07;;;;;;;0.10;0.10;;;;;;;;;;5088308;28;20044;-50
2023/07/03 09:26:43;;;;;;;0.10;0.10;;;;;;;;;;5088146;28;20074;-52
2023/07/03 09:29:10;;;;;;;0.10;0.10;;;;;;;;;;5069942;28;20531;-52
2023/07/03 09:31:35;;;;;;;0.10;0.10;;;;;;;;;;5069337;28;20083;-51
2023/07/03 09:34:01;;;;;;;0.10;0.10;;;;;;;;;;5087624;28;20048;-52
2023/07/03 09:36:31;;;;;;;0.10;0.10;;;;;;;;;;5087403;28;20040;-51
2023/07/03 09:38:56;;;;;;;0.10;0.10;;;;;;;;;;5068906;28;20047;-52
2023/07/03 09:41:23;;;;;;;0.10;0.10;;;;;;;;;;5102614;28;20282;-52
2023/07/03 09:43:48;;;;;;;0.10;0.10;;;;;;;;;;5108158;28;20055;-52
2023/07/03 09:46:14;;;;;;;0.10;0.10;;;;;;;;;;5108395;28;20047;-51
2023/07/03 09:48:40;;;;;;;0.10;0.10;;;;;;;;;;5070543;28;20075;-52
2023/07/03 09:51:13;;;;;;;0.10;0.10;;;;;;;;;;5082115;28;20309;-52
2023/07/03 09:53:39;;;;;;;0.10;0.10;;;;;;;;;;5108481;28;20183;-52
2023/07/03 09:56:10;;;;;;;0.10;0.10;;;;;;;;;;5090184;28;20299;-53
2023/07/03 09:58:42;;;;;;;0.10;0.10;;;;;;;;;;5069805;28;20040;-53
2023/07/03 10:01:15;;;;;;;0.10;0.10;;;;;;;;;;5082104;28;20048;-52
2023/07/03 10:04:02;;;;;;;0.10;0.10;;;;;;;;;;5092984;28;20044;-52
2023/07/03 10:06:28;;;;;;;0.15;0.15;;;;;;;;;;5090037;28;20478;-52
2023/07/03 10:08:58;;;;;;;0.10;0.10;;;;;;;;;;5108249;28;20112;-52
2023/07/03 10:11:45;;;;;;;0.10;0.10;;;;;;;;;;5088979;28;20055;-51
2023/07/03 10:14:14;;;;;;;0.10;0.10;;;;;;;;;;5079730;28;20425;-52
2023/07/03 10:16:40;;;;;;;0.10;0.10;;;;;;;;;;5067236;28;20053;-53
2023/07/03 10:19:07;;;;;;;0.10;0.10;;;;;;;;;;5067202;28;20071;-52
2023/07/03 10:21:33;;;;;;;0.10;0.10;;;;;;;;;;5083379;28;20773;-50
2023/07/03 10:24:00;;;;;;;0.10;0.10;;;;;;;;;;5087411;28;20072;-52
2023/07/03 10:26:28;;;;;;;0.10;0.10;;;;;;;;;;5087696;28;20062;-50
2023/07/03 10:28:57;;;;;;;0.10;0.10;;;;;;;;;;5087475;28;20079;-52
2023/07/03 10:31:29;;;;;;;0.10;0.10;;;;;;;;;;5068677;28;20044;-51
2023/07/03 10:33:58;;;;;;;0.10;0.10;;;;;;;;;;5085639;28;20508;-52
2023/07/03 10:36:25;;;;;;;0.10;0.10;;;;;;;;;;5068930;28;20040;-51
2023/07/03 10:38:55;;;;;;;0.10;0.10;;;;;;;;;;5068092;28;20051;-51
2023/07/03 10:41:24;;;;;;;0.10;0.10;;;;;;;;;;5074066;28;20040;-52
2023/07/03 10:43:53;;;;;;;0.10;0.10;;;;;;;;;;5086360;28;20059;-52
2023/07/03 10:46:23;;;;;;;0.10;0.10;;;;;;;;;;5068697;28;20037;-52
2023/07/03 10:48:52;;;;;;;0.10;0.10;;;;;;;;;;5068987;28;20051;-50
2023/07/03 10:51:21;;;;;;;0.10;0.10;;;;;;;;;;5086166;28;20055;-52
2023/07/03 10:53:50;;;;;;;0.10;0.10;;;;;;;;;;5086440;28;20181;-51
2023/07/03 10:56:21;;;;;;;0.10;0.10;;;;;;;;;;5086288;28;20056;-50
2023/07/03 10:58:57;;;;;;;0.10;0.10;;;;;;;;;;5068326;28;20096;-51
2023/07/03 11:01:29;;;;;;;0.10;0.10;;;;;;;;;;5101093;28;20056;-51
2023/07/03 11:04:00;;;;;;;0.30;0.30;;;;;;;;;;5106417;28;20480;-50
2023/07/03 11:06:51;;;;;;;0.10;0.10;;;;;;;;;;5091727;28;20059;-52
2023/07/03 11:09:22;;;;;;;0.10;0.10;;;;;;;;;;5106425;28;20416;-51
2023/07/03 11:12:08;;;;;;;0.10;0.10;;;;;;;;;;5102014;28;20048;-52
2023/07/03 11:14:42;;;;;;;0.17;0.17;;;;;;;;;;5050487;28;20055;-51
2023/07/03 11:17:20;;;;;;;0.10;0.10;;;;;;;;;;5065646;28;20045;-51
2023/07/03 11:20:05;;;;;;;0.10;0.10;;;;;;;;;;5066993;28;20868;-52
2023/07/03 11:22:37;;;;;;;0.10;0.10;;;;;;;;;;5070381;28;20055;-49
2023/07/03 11:25:09;;;;;;;0.10;0.10;;;;;;;;;;5086173;28;20059;-51
2023/07/03 11:27:39;;;;;;;0.10;0.10;;;;;;;;;;5086263;28;20268;-51
2023/07/03 11:30:08;;;;;;;0.10;0.10;;;;;;;;;;5085417;28;20105;-48
2023/07/03 11:32:34;;;;;;;0.10;0.10;;;;;;;;;;5085834;28;20059;-50
2023/07/03 11:35:01;;;;;;;0.10;0.10;;;;;;;;;;5085985;28;20048;-52
2023/07/03 11:37:43;;;;;;;0.10;0.10;;;;;;;;;;5085352;28;20060;-51
2023/07/03 11:40:35;;;;;;;0.20;0.20;;;;;;;;;;5084780;28;20048;-52
2023/07/03 11:51:11;;;;;;;0.10;0.10;;;;;;;;;;5184010;27;20388;-48
2023/07/03 11:53:39;;;;;;;0.10;0.10;;;;;;;;;;5163914;27;20047;-52
2023/07/03 11:56:05;;;;;;;0.10;0.10;;;;;;;;;;5163910;27;20423;-52
2023/07/03 11:58:33;;;;;;;0.10;0.10;;;;;;;;;;5164880;27;20081;-50
2023/07/03 12:01:18;;;;;;;0.10;0.10;;;;;;;;;;5147036;27;20043;-52
2023/07/03 12:04:00;;;;;;;0.25;0.25;;;;;;;;;;5128799;27;20283;-50
2023/07/03 12:06:44;;;;;;;0.10;0.10;;;;;;;;;;5144919;27;20149;-50
2023/07/03 12:09:26;;;;;;;0.10;0.10;;;;;;;;;;5144098;27;20494;-51
2023/07/03 12:12:03;;;;;;;0.10;0.10;;;;;;;;;;5140824;27;20047;-51
2023/07/03 12:14:53;;;;;;;0.10;0.10;;;;;;;;;;5156199;27;20392;-52
2023/07/03 12:17:24;;;;;;;0.10;0.10;;;;;;;;;;5150305;27;20061;-51
2023/07/03 12:19:54;;;;;;;0.10;0.10;;;;;;;;;;5143562;27;20449;-52
2023/07/03 12:22:22;;;;;;;0.10;0.10;;;;;;;;;;5143205;27;20081;-52
2023/07/03 12:24:47;;;;;;;;;;;;;;;;;;5144092;27;20374;-52
2023/07/03 12:27:14;;;;;;;0.50;0.40;;;;;;;;;;5144467;27;20390;-53
2023/07/03 12:29:47;;;;;;;0.17;0.17;;;;;;;;;;5143673;27;20066;-51
2023/07/03 12:32:21;;;;;;;0.10;0.10;;;;;;;;;;5143744;27;20054;-52
2023/07/03 12:34:48;;;;;;;0.10;0.10;;;;;;;;;;5144081;27;20094;-53
2023/07/03 12:37:15;;;;;;;0.10;0.10;;;;;;;;;;5144080;27;20086;-52
2023/07/03 12:39:42;;;;;;;0.10;0.10;;;;;;;;;;5139955;27;20050;-49
2023/07/03 12:42:13;;;;;;;0.10;0.10;;;;;;;;;;5142780;27;20094;-51
2023/07/03 12:44:39;;;;;;;0.10;0.10;;;;;;;;;;5127345;27;20554;-53
2023/07/03 12:47:06;;;;;;;0.10;0.10;;;;;;;;;;5143826;27;20058;-50
2023/07/03 12:49:44;;;;;;;0.10;0.10;;;;;;;;;;5143767;27;20337;-52
2023/07/03 12:52:10;;;;;;;;;;;;;;;;;;5128076;27;20294;-52
2023/07/03 12:54:35;;;;;;;0.10;0.10;;;;;;;;;;5143284;27;20006;-51
2023/07/03 12:57:04;;;;;;;0.10;0.10;;;;;;;;;;5143123;27;20046;-53
2023/07/03 12:59:30;;;;;;;0.10;0.10;;;;;;;;;;5143453;27;20067;-51
2023/07/03 13:01:55;;;;;;;0.10;0.10;;;;;;;;;;5132306;27;20510;-50
2023/07/03 13:04:25;;;;;;;0.10;0.10;;;;;;;;;;5130215;28;20047;-50
2023/07/03 13:06:50;;;;;;;0.10;0.10;;;;;;;;;;5130147;28;20043;-50
2023/07/03 13:09:16;;;;;;;0.10;0.10;;;;;;;;;;5129843;28;20199;-51
2023/07/03 13:11:43;;;;;;;0.10;0.10;;;;;;;;;;5119567;28;20052;-52
2023/07/03 13:14:12;;;;;;;0.10;0.10;;;;;;;;;;5118509;27;20046;-51
2023/07/03 13:16:38;;;;;;;0.10;0.10;;;;;;;;;;5150612;27;20047;-52
2023/07/03 13:19:04;;;;;;;0.10;0.10;;;;;;;;;;5112777;28;20053;-51
2023/07/03 13:21:30;;;;;;;0.10;0.10;;;;;;;;;;5129312;28;20043;-52
2023/07/03 13:24:04;;;;;;;0.10;0.10;;;;;;;;;;5129632;28;20035;-52
2023/07/03 13:26:29;;;;;;;0.10;0.10;;;;;;;;;;5130261;28;20047;-51
2023/07/03 13:28:58;;;;;;;0.10;0.10;;;;;;;;;;5129642;28;20053;-52
2023/07/03 13:31:24;;;;;;;0.10;0.10;;;;;;;;;;5110425;28;20491;-52
2023/07/03 13:34:06;;;;;;;0.10;0.10;;;;;;;;;;5129525;28;20631;-53
2023/07/03 13:36:33;;;;;;;0.10;0.10;;;;;;;;;;5111483;28;20075;-52
2023/07/03 13:39:01;;;;;;;0.10;0.10;;;;;;;;;;5111065;28;20047;-50
2023/07/03 13:41:27;;;;;;;0.10;0.10;;;;;;;;;;5127625;28;20043;-52
2023/07/03 13:43:55;;;;;;;0.10;0.10;;;;;;;;;;5128896;27;20434;-51
2023/07/03 13:46:21;;;;;;;0.10;0.10;;;;;;;;;;5128546;27;20079;-51
2023/07/03 13:48:47;;;;;;;0.10;0.10;;;;;;;;;;5129099;28;20414;-52
2023/07/03 13:51:12;;;;;;;0.10;0.10;;;;;;;;;;5128433;28;20092;-52
2023/07/03 13:53:38;;;;;;;0.10;0.10;;;;;;;;;;5128477;28;20039;-52
2023/07/03 13:56:03;;;;;;;0.10;0.10;;;;;;;;;;5128484;28;20055;-51
2023/07/03 13:58:29;;;;;;;0.10;0.10;;;;;;;;;;5128953;28;20057;-53
2023/07/03 14:00:54;;;;;;;0.10;0.10;;;;;;;;;;5128291;27;20479;-52
2023/07/03 14:03:20;;;;;;;0.17;0.17;;;;;;;;;;5127980;28;20385;-52
2023/07/03 14:05:46;;;;;;;0.10;0.10;;;;;;;;;;5128895;28;20047;-51
2023/07/03 14:08:11;;;;;;;0.10;0.10;;;;;;;;;;5129350;28;20542;-52
2023/07/03 14:10:37;;;;;;;0.10;0.10;;;;;;;;;;5126481;27;20043;-52
2023/07/03 14:13:03;;;;;;;0.10;0.10;;;;;;;;;;5115746;27;20138;-52
2023/07/03 14:15:28;;;;;;;0.10;0.10;;;;;;;;;;5148893;27;20057;-52
2023/07/03 14:17:54;;;;;;;0.10;0.10;;;;;;;;;;5131201;27;20106;-52
2023/07/03 14:20:20;;;;;;;0.10;0.10;;;;;;;;;;5142305;27;20058;-51
2023/07/03 14:22:48;;;;;;;0.10;0.10;;;;;;;;;;5128423;28;20047;-51
2023/07/03 14:25:14;;;;;;;0.00;0.00;;;;;;;;;;5128502;28;20043;-52
2023/07/03 14:27:40;;;;;;;0.10;0.10;;;;;;;;;;5128966;28;20148;-51
2023/07/03 14:30:07;;;;;;;0.05;0.05;;;;;;;;;;5128103;28;20047;-52
2023/07/03 14:32:32;;;;;;;0.10;0.10;;;;;;;;;;5128516;28;20079;-52
2023/07/03 14:35:18;;;;;;;0.10;0.10;;;;;;;;;;5112828;28;20055;-52
2023/07/03 14:37:43;;;;;;;0.10;0.10;;;;;;;;;;5128807;27;20498;-52
2023/07/03 14:40:10;;;;;;;0.10;0.10;;;;;;;;;;5128055;28;20051;-52
2023/07/03 14:42:36;;;;;;;0.10;0.10;;;;;;;;;;5127460;28;20055;-52
2023/07/03 14:45:01;;;;;;;0.10;0.10;;;;;;;;;;5127419;28;20496;-51
2023/07/03 14:47:27;;;;;;;0.10;0.10;;;;;;;;;;5128701;28;20074;-51
2023/07/03 14:49:52;;;;;;;0.10;0.10;;;;;;;;;;5125652;28;20057;-51
2023/07/03 14:52:19;;;;;;;0.10;0.10;;;;;;;;;;5128628;28;20082;-52
2023/07/03 14:54:45;;;;;;;0.10;0.10;;;;;;;;;;5128085;28;20055;-52